Latest Weather Observations for Dalby

IDQ60801

Issued at 9:42 am EST Wednesday 20 February 2019 (issued every 10 minutes, with the page automatically refreshed every 10 minutes)

About weather observations | Map of weather stations | Latest weather observations for QLD | Other Formats
Station Details ID: 041522 Name: DALBY AIRPORT Lat: -27.16 Lon: 151.26 Height: 343.9 m
Data from the previous 72 hours. | See also: Recent months at Dalby
Date/Time
EST
Temp
°C
App
Temp
°C
Dew
Point
°C
Rel
Hum
%
Delta-T
°C
Wind Press
QNH
hPa
Press
MSL
hPa
Rain since
9am
mm
Dir  Spd
km/h
Gust
km/h
Spd
kts
Gust
kts
20/09:30am 28.8 27.8 15.7 45 8.2 ENE 15 20 8 11 1010.2 1008.1 0.0
20/09:00am 26.7 25.1 16.0 52 6.7 E 19 24 10 13 1010.4 1008.4 0.0
20/08:30am 25.8 24.9 16.9 58 5.6 E 17 24 9 13 1010.4 1008.4 0.0
20/08:00am 25.7 25.0 17.4 60 5.3 E 17 22 9 12 1010.5 1008.5 0.0
20/07:30am 24.9 23.7 17.1 62 4.9 E 19 24 10 13 1010.5 1008.5 0.0
20/07:00am 24.2 25.0 17.2 65 4.4 E 9 11 5 6 1010.1 1008.0 0.0
20/06:30am 22.7 23.3 16.7 69 3.7 E 9 11 5 6 1009.8 1007.7 0.0
20/06:00am 21.4 21.5 16.4 73 3.1 ESE 11 15 6 8 1009.3 1007.2 0.0
20/05:30am 21.7 23.2 16.6 73 3.1 SSE 4 11 2 6 1008.7 1006.6 0.0
20/05:00am 21.5 21.9 15.3 68 3.7 SSW 7 9 4 5 1008.0 1006.0 0.0
20/04:30am 21.2 21.6 14.8 67 3.8 S 6 7 3 4 1007.5 1005.4 0.0
20/04:00am 21.1 20.6 13.8 63 4.3 W 9 11 5 6 1007.2 1005.1 0.0
20/03:30am 22.1 21.6 15.0 64 4.3 S 11 13 6 7 1006.9 1004.8 0.0
20/03:00am 21.5 20.7 12.9 58 5.0 SW 9 11 5 6 1006.7 1004.6 0.0
20/02:30am 22.2 21.4 13.0 56 5.4 WSW 9 15 5 8 1006.5 1004.4 0.0
20/02:00am 23.6 23.6 15.1 59 5.2 SE 9 11 5 6 1006.3 1004.2 0.0
20/01:30am 23.0 22.0 12.3 51 6.2 S 9 9 5 5 1006.5 1004.4 0.0
20/01:00am 23.1 22.3 11.8 49 6.5 SE 7 9 4 5 1006.5 1004.4 0.0
20/12:30am 23.1 20.9 10.9 46 6.9 NNW 13 20 7 11 1006.8 1004.7 0.0
20/12:00am 24.3 23.9 12.9 49 6.7 E 7 9 4 5 1006.9 1004.8 0.0
 
Date/Time
EST
Temp
°C
App
Temp
°C
Dew
Point
°C
Rel
Hum
%
Delta-T
°C
Wind Press
QNH
hPa
Press
MSL
hPa
Rain since
9am
mm
Dir  Spd
km/h
Gust
km/h
Spd
kts
Gust
kts
19/11:30pm 23.9 21.7 9.5 40 8.0 E 11 13 6 7 1007.1 1005.0 0.0
19/11:00pm 24.3 22.7 8.7 37 8.5 E 7 9 4 5 1007.3 1005.2 0.0
19/10:30pm 25.0 22.5 8.1 34 9.2 ESE 11 13 6 7 1007.4 1005.3 0.0
19/10:00pm 26.2 23.6 7.7 31 10.0 E 11 13 6 7 1007.5 1005.4 0.0
19/09:30pm 27.9 24.9 7.7 28 11.0 ENE 13 17 7 9 1007.4 1005.3 0.0
19/09:00pm 30.4 26.4 8.2 25 12.4 ENE 19 24 10 13 1007.2 1005.1 0.0
19/08:30pm 27.8 25.5 7.6 28 11.0 NNE 9 9 5 5 1006.9 1004.8 0.0
19/08:00pm 29.1 27.2 6.5 24 12.2 N 6 7 3 4 1006.6 1004.5 0.0
19/07:30pm 30.0 27.1 6.6 23 12.7 N 11 11 6 6 1006.3 1004.2 0.0
19/07:00pm 31.7 29.5 5.3 19 14.2 ENE 6 6 3 3 1006.1 1004.0 0.0
19/06:30pm 33.9 31.2 5.4 17 15.5 E 9 11 5 6 1005.8 1003.7 0.0
19/06:00pm 35.9 32.9 4.2 14 17.1 ESE 9 13 5 7 1005.5 1003.5 0.0
19/05:30pm 36.8 33.0 3.9 13 17.7 ESE 13 20 7 11 1005.3 1003.3 0.0
19/05:00pm 37.1 33.0 4.1 13 17.9 SE 15 24 8 13 1005.2 1003.2 0.0
19/04:30pm 37.1 32.4 3.0 12 18.1 S 17 33 9 18 1005.2 1003.2 0.0
19/04:00pm 37.1 33.4 6.2 15 17.3 SE 15 22 8 12 1005.3 1003.3 0.0
19/03:30pm 36.6 33.9 5.8 15 17.1 SSW 9 17 5 9 1005.4 1003.4 0.0
19/03:00pm 36.9 34.3 7.8 17 16.7 SE 11 20 6 11 1005.7 1003.6 0.0
19/02:30pm 36.2 32.7 5.5 15 16.9 SSE 13 24 7 13 1006.1 1004.0 0.0
19/02:00pm 35.2 31.9 6.5 17 16.0 SSE 13 24 7 13 1006.5 1004.4 0.0
19/01:30pm 34.7 31.5 8.4 20 15.0 SW 15 22 8 12 1007.1 1005.0 0.0
19/01:00pm 34.7 32.8 9.2 21 14.8 S 9 17 5 9 1007.7 1005.6 0.0
19/12:30pm 33.8 32.3 10.4 24 13.7 W 9 15 5 8 1008.2 1006.2 0.0
19/12:00pm 32.3 30.0 10.4 26 12.8 W 13 20 7 11 1008.5 1006.5 0.0
19/11:30am 32.2 30.4 10.8 27 12.6 W 11 20 6 11 1009.1 1007.0 0.0
19/11:00am 30.8 28.9 11.7 31 11.3 W 13 22 7 12 1009.7 1007.6 0.0
19/10:30am 29.5 28.5 13.3 37 9.8 NW 11 20 6 11 1010.1 1008.0 0.0
19/10:00am 27.9 26.1 13.4 40 8.7 W 15 20 8 11 1010.2 1008.1 0.0
19/09:30am 27.2 26.5 14.2 44 7.9 WNW 11 17 6 9 1010.5 1008.5 0.0
19/09:00am 24.8 24.0 14.0 51 6.5 WSW 11 17 6 9 1010.7 1008.7 0.0
19/08:30am 23.9 22.8 14.3 55 5.8 W 13 20 7 11 1010.7 1008.7 0.0
19/08:00am 23.0 21.5 14.3 58 5.2 W 15 17 8 9 1010.4 1008.4 0.0
19/07:30am 22.0 21.3 14.4 62 4.5 W 11 17 6 9 1010.3 1008.2 0.0
19/07:00am 18.9 18.7 13.1 69 3.3 NNW 6 7 3 4 1010.2 1008.1 0.0
19/06:30am 18.3 18.1 13.0 71 3.0 ENE 6 7 3 4 1009.9 1007.8 0.0
19/06:00am 17.1 17.0 13.2 78 2.2 ESE 6 7 3 4 1009.7 1007.6 0.0
19/05:30am 17.0 16.8 12.9 77 2.3 ESE 6 9 3 5 1009.5 1007.4 0.0
19/05:00am 17.9 17.7 13.6 76 2.5 ESE 7 9 4 5 1009.2 1007.1 0.0
19/04:30am 17.5 17.3 13.0 75 2.6 ESE 6 7 3 4 1009.1 1007.0 0.0
19/04:00am 17.9 17.3 13.4 75 2.6 ESE 9 11 5 6 1009.0 1006.9 0.0
19/03:30am 18.9 18.5 14.0 73 2.9 E 9 9 5 5 1009.3 1007.2 0.0
19/03:00am 19.5 18.7 13.9 70 3.3 E 11 13 6 7 1009.4 1007.3 0.0
19/02:30am 20.2 19.0 14.1 68 3.6 ESE 13 15 7 8 1009.6 1007.5 0.0
19/02:00am 20.7 19.1 13.9 65 4.0 E 15 19 8 10 1009.8 1007.7 0.0
19/01:30am 21.0 19.2 13.4 62 4.4 E 15 17 8 9 1010.1 1008.0 0.0
19/01:00am 21.3 19.2 13.5 61 4.6 E 17 20 9 11 1010.3 1008.2 0.0
19/12:30am 22.0 19.5 13.6 59 4.9 E 19 24 10 13 1010.6 1008.6 0.0
19/12:00am 22.4 19.9 13.5 57 5.2 E 19 24 10 13 1010.7 1008.7 0.0
 
Date/Time
EST
Temp
°C
App
Temp
°C
Dew
Point
°C
Rel
Hum
%
Delta-T
°C
Wind Press
QNH
hPa
Press
MSL
hPa
Rain since
9am
mm
Dir  Spd
km/h
Gust
km/h
Spd
kts
Gust
kts
18/11:30pm 22.9 20.5 13.7 56 5.4 ENE 19 24 10 13 1010.9 1008.9 0.0
18/11:00pm 23.1 21.3 13.3 54 5.8 E 15 20 8 11 1010.9 1008.9 0.0
18/10:30pm 24.1 20.0 13.9 53 6.1 E 28 35 15 19 1010.6 1008.6 0.0
18/10:00pm 24.7 21.0 13.9 51 6.5 E 26 35 14 19 1010.4 1008.4 0.0
18/09:30pm 25.5 21.6 13.4 47 7.2 ENE 26 37 14 20 1010.4 1008.4 0.0
18/09:00pm 26.2 22.6 13.0 44 7.8 ENE 24 32 13 17 1010.2 1008.1 0.0
18/08:30pm 27.4 22.1 12.6 40 8.8 ENE 32 43 17 23 1009.8 1007.7 0.0
18/08:00pm 28.4 24.3 8.7 29 11.0 ENE 20 30 11 16 1009.4 1007.3 0.0
18/07:30pm 28.7 25.1 8.4 28 11.3 ENE 17 20 9 11 1009.0 1006.9 0.0
18/07:00pm 28.5 25.1 6.0 24 12.0 ENE 13 15 7 8 1008.5 1006.5 0.0
18/06:30pm 31.0 27.6 6.1 21 13.5 NE 13 15 7 8 1008.2 1006.2 0.0
18/06:00pm 32.9 29.6 6.2 19 14.6 E 13 19 7 10 1008.0 1006.0 0.0
18/05:30pm 33.3 30.0 6.6 19 14.7 ENE 13 19 7 10 1007.8 1005.8 0.0
18/05:00pm 34.0 30.7 6.3 18 15.3 E 13 24 7 13 1007.5 1005.4 0.0
18/04:30pm 33.9 31.0 6.3 18 15.2 SE 11 19 6 10 1007.6 1005.5 0.0
18/04:00pm 34.7 31.7 6.1 17 15.8 S 11 19 6 10 1007.7 1005.6 0.0
18/03:30pm 34.3 30.7 6.6 18 15.4 ESE 15 32 8 17 1007.9 1005.9 0.0
18/03:00pm 34.2 30.9 6.5 18 15.4 S 13 30 7 16 1008.2 1006.2 0.0
18/02:30pm 33.9 29.8 6.3 18 15.2 SSE 17 33 9 18 1008.8 1006.7 0.0
18/02:00pm 33.4 29.4 8.1 21 14.3 SSE 19 28 10 15 1009.3 1007.2 0.0
18/01:30pm 32.8 29.7 8.9 23 13.6 SSW 15 24 8 13 1009.7 1007.6 0.0
18/01:00pm 32.1 29.9 10.8 27 12.5 SSE 13 24 7 13 1010.2 1008.1 0.0
18/12:30pm 30.7 29.2 10.6 29 11.7 ESE 9 17 5 9 1010.8 1008.8 0.0
18/12:00pm 30.2 26.7 10.2 29 11.5 SE 19 28 10 15 1011.4 1009.4 0.0
18/11:30am 29.7 27.5 10.8 31 11.0 ENE 13 24 7 13 1011.9 1009.8 0.0
18/11:00am 28.8 26.5 10.5 32 10.5 NE 13 20 7 11 1012.3 1010.2 0.0
18/10:30am 28.3 26.9 10.9 34 10.1 ESE 9 20 5 11 1013.0 1010.9 0.0
18/10:00am 27.8 25.6 12.2 38 9.2 NE 15 24 8 13 1013.2 1011.2 0.0
18/09:30am 26.1 23.8 11.8 41 8.3 ENE 15 28 8 15 1013.3 1011.3 0.0
18/09:00am 25.5 22.4 13.4 47 7.2 ENE 22 30 12 16 1013.4 1011.4 0.0
18/08:30am 23.9 21.6 14.0 54 5.9 NE 19 26 10 14 1013.6 1011.6 0.0
18/08:00am 23.1 21.0 14.7 59 5.0 ENE 19 26 10 14 1013.7 1011.7 0.0
18/07:30am 21.8 19.8 14.9 65 4.1 E 19 24 10 13 1013.5 1011.5 0.0
18/07:00am 20.6 19.0 14.9 70 3.4 E 17 22 9 12 1013.3 1011.3 0.0
18/06:30am 18.9 18.2 14.4 75 2.6 ESE 11 15 6 8 1013.2 1011.2 0.0
18/06:00am 17.3 16.5 14.0 81 1.9 ESE 11 13 6 7 1012.9 1010.8 0.0
18/05:30am 17.0 16.0 13.3 79 2.1 ESE 11 11 6 6 1012.6 1010.5 0.0
18/05:00am 17.4 16.4 13.5 78 2.2 ESE 11 11 6 6 1012.3 1010.2 0.0
18/04:30am 17.5 16.9 13.6 78 2.2 SE 9 11 5 6 1012.2 1010.1 0.0
18/04:00am 17.5 16.9 13.4 77 2.4 SE 9 9 5 5 1012.0 1009.9 0.0
18/03:30am 17.9 17.3 13.6 76 2.5 ESE 9 11 5 6 1012.1 1010.0 0.0
18/03:00am 18.3 17.7 13.4 73 2.8 ESE 9 11 5 6 1012.3 1010.2 0.0
18/02:30am 19.5 18.3 13.9 70 3.3 ESE 13 19 7 10 1012.3 1010.2 0.0
18/02:00am 20.2 17.8 14.3 69 3.5 E 20 24 11 13 1012.2 1010.1 0.0
18/01:30am 20.3 18.4 14.2 68 3.6 E 17 24 9 13 1012.4 1010.3 0.0
18/01:00am 20.6 19.0 14.0 66 3.9 E 15 20 8 11 1012.5 1010.4 0.0
18/12:30am 21.0 19.2 13.4 62 4.4 ENE 15 20 8 11 1013.0 1010.9 0.0
18/12:00am 21.4 19.3 13.6 61 4.6 ENE 17 26 9 14 1013.0 1010.9 0.0
 
Date/Time
EST
Temp
°C
App
Temp
°C
Dew
Point
°C
Rel
Hum
%
Delta-T
°C
Wind Press
QNH
hPa
Press
MSL
hPa
Rain since
9am
mm
Dir  Spd
km/h
Gust
km/h
Spd
kts
Gust
kts
17/11:30pm 21.8 17.6 13.4 59 4.9 E 28 37 15 20 1013.1 1011.1 0.0
17/11:00pm 22.2 17.1 13.0 56 5.4 E 32 43 17 23 1012.9 1010.8 0.0
17/10:30pm 22.6 17.3 13.1 55 5.5 E 33 43 18 23 1012.9 1010.8 0.0
17/10:00pm 23.2 19.2 13.1 53 5.9 E 26 35 14 19 1012.7 1010.6 0.0
17/09:30pm 24.0 18.8 12.9 50 6.5 E 32 41 17 22 1012.5 1010.4 0.0
17/09:00pm 25.0 20.1 12.6 46 7.3 ENE 30 39 16 21 1012.1 1010.0 0.0
17/08:30pm 26.2 21.3 12.6 43 8.0 ENE 30 39 16 21 1011.6 1009.6 0.0
17/08:00pm 27.7 23.2 8.6 30 10.6 ENE 22 35 12 19 1011.2 1009.2 0.0
17/07:30pm 27.7 24.2 7.0 27 11.2 E 15 19 8 10 1010.7 1008.7 0.0
17/07:00pm 28.9 25.0 6.9 25 11.9 E 17 19 9 10 1010.2 1008.1 0.0
17/06:30pm 30.2 27.8 6.8 23 12.8 ESE 9 15 5 8 1009.9 1007.8 0.0
17/06:00pm 32.4 30.0 5.1 18 14.7 S 7 19 4 10 1009.7 1007.6 0.0
17/05:30pm 32.1 28.9 7.0 21 13.9 ENE 13 20 7 11 1009.6 1007.5 0.0
17/05:00pm 32.4 30.5 6.6 20 14.2 N 6 11 3 6 1009.6 1007.5 0.0
17/04:30pm 33.3 29.7 6.6 19 14.7 S 15 28 8 15 1009.8 1007.7 0.0
17/04:00pm 32.7 27.8 6.8 20 14.3 SSE 22 33 12 18 1009.8 1007.7 0.0
17/03:30pm 32.9 29.9 7.7 21 14.1 SW 13 22 7 12 1010.1 1008.0 0.0
17/03:00pm 32.3 29.1 8.5 23 13.5 SSE 15 28 8 15 1010.5 1008.5 0.0
17/02:30pm 32.1 29.5 7.7 22 13.6 SE 11 24 6 13 1011.1 1009.1 0.0
17/02:00pm 31.9 28.3 8.2 23 13.3 ESE 17 28 9 15 1011.8 1009.7 0.0
17/01:30pm 31.6 28.1 8.6 24 13.0 SE 17 28 9 15 1012.3 1010.2 0.0
17/01:00pm 31.8 28.8 9.3 25 12.9 SE 15 32 8 17 1012.8 1010.7 0.0
17/12:30pm 31.1 28.1 9.3 26 12.4 SE 15 30 8 16 1013.3 1011.3 0.0
17/12:00pm 29.7 26.6 8.7 27 11.8 SE 15 26 8 14 1013.7 1011.7 0.0
17/11:30am 30.0 28.0 10.0 29 11.5 SSE 11 22 6 12 1014.3 1012.3 0.0
17/11:00am 28.4 25.9 9.6 31 10.6 E 13 20 7 11 1015.0 1012.9 0.0
17/10:30am 27.6 26.0 10.3 34 9.9 ESE 9 22 5 12 1015.5 1013.4 0.0
17/10:00am 26.5 24.6 11.8 40 8.5 E 13 20 7 11 1016.0 1014.0 0.0

Other formats

Comma delimited format used in spreadsheet applications
http://www.bom.gov.au/fwo/IDQ60801/IDQ60801.94542.axf

JavaScript Object Notation format (JSON) in row-major order
http://www.bom.gov.au/fwo/IDQ60801/IDQ60801.94542.json

Data quality

Most of these data are generated automatically and are frequently updated. Quality checks on data are not normally performed. It is possible for incorrect values to appear. Refer to information at About Latest Weather Observations and please check the disclaimer before using these data.